Time;durP1;ratioP1;P1;durP2;ratioP2;P2;SDS_P1;SDS_P2;PMS_P1;PMS_P2;Temp;Humidity;BMP_temperature;BMP_pressure;BME280_temperature;BME280_humidity;BME280_pressure;Samples;Min_cycle;Max_cycle;Signal;HPM_P1;HPM_P2
2022/10/19 00:00:48;;;;;;;2.75;1.90;;;;;;;20.11;54.66;103058.34;5084400;28;20049;-39
2022/10/19 00:03:15;;;;;;;3.22;1.90;;;;;;;20.09;54.71;103057.59;5083268;28;20048;-39
2022/10/19 00:05:47;;;;;;;3.65;2.22;;;;;;;20.10;54.19;103063.84;5083142;28;20526;-39
2022/10/19 00:08:14;;;;;;;4.10;2.05;;;;;;;20.08;54.47;103063.97;5081208;28;20059;-39
2022/10/19 00:10:40;;;;;;;5.10;2.13;;;;;;;20.07;54.09;103059.56;5085343;28;20062;-39
2022/10/19 00:13:07;;;;;;;3.67;2.00;;;;;;;20.07;54.99;103058.69;5089250;28;20052;-39
2022/10/19 00:15:38;;;;;;;3.28;1.95;;;;;;;20.06;nan;103055.16;5084578;28;20047;-39
2022/10/19 00:18:06;;;;;;;3.42;2.15;;;;;;;20.05;54.69;103047.16;5084218;28;20076;-39
2022/10/19 00:20:34;;;;;;;3.15;1.90;;;;;;;20.04;54.45;103054.38;5084783;28;20052;-39
2022/10/19 00:23:01;;;;;;;2.35;1.75;;;;;;;20.02;54.69;103045.59;5085361;28;20052;-39
2022/10/19 00:25:27;;;;;;;2.60;1.70;;;;;;;20.02;54.96;103047.38;5084486;28;20051;-39
2022/10/19 00:27:54;;;;;;;3.33;1.52;;;;;;;20.01;54.34;103054.59;5085853;28;20448;-39
2022/10/19 00:30:20;;;;;;;4.65;2.10;;;;;;;20.01;54.52;103051.91;5088325;28;20052;-39
2022/10/19 00:32:47;;;;;;;2.78;1.95;;;;;;;20.00;54.02;103047.50;5082892;28;20427;-40
2022/10/19 00:35:13;;;;;;;3.15;2.10;;;;;;;20.00;54.34;103050.19;5085419;28;20071;-39
2022/10/19 00:37:40;;;;;;;3.30;1.60;;;;;;;19.98;54.69;103038.72;5081684;28;20052;-39
2022/10/19 00:40:07;;;;;;;2.92;1.77;;;;;;;19.97;54.70;103043.19;5086496;28;20056;-39
2022/10/19 00:42:33;;;;;;;2.65;1.52;;;;;;;19.97;54.12;103039.66;5082319;28;20040;-39
2022/10/19 00:45:05;;;;;;;2.25;1.45;;;;;;;19.96;54.34;103038.78;5087597;28;20080;-39
2022/10/19 00:47:33;;;;;;;3.22;1.95;;;;;;;19.94;54.81;103035.38;5083360;28;20114;-39
2022/10/19 00:49:59;;;;;;;2.60;1.77;;;;;;;19.94;54.24;103031.84;5083562;28;20055;-39
2022/10/19 00:52:26;;;;;;;3.22;2.20;;;;;;;19.94;54.15;103039.91;5085382;28;20051;-39
2022/10/19 00:54:56;;;;;;;2.70;1.50;;;;;;;19.92;54.35;103033.75;5083491;28;20097;-39
2022/10/19 00:57:27;;;;;;;3.45;1.73;;;;;;;19.92;54.12;103039.13;5083295;28;20040;-39
2022/10/19 00:59:54;;;;;;;2.42;1.48;;;;;;;19.89;54.77;103042.06;5083691;28;20051;-39
2022/10/19 01:02:21;;;;;;;3.53;1.65;;;;;;;19.89;54.35;103040.22;5082977;28;20161;-39
2022/10/19 01:04:50;;;;;;;2.20;1.60;;;;;;;19.88;54.69;103043.88;5081564;28;20055;-39
2022/10/19 01:07:18;;;;;;;3.63;1.52;;;;;;;19.87;54.27;103038.63;5082044;28;20453;-39
2022/10/19 01:09:44;;;;;;;3.70;1.90;;;;;;;19.86;54.69;103043.16;5085278;28;20051;-39
2022/10/19 01:12:35;;;;;;;2.17;1.40;;;;;;;19.84;54.24;103042.38;5081002;28;20048;-39
2022/10/19 01:15:08;;;;;;;2.20;1.40;;;;;;;19.84;54.53;103034.31;5082465;28;20053;-39
2022/10/19 01:18:07;;;;;;;2.13;1.55;;;;;;;19.84;54.70;103028.94;5082804;28;20665;-39
2022/10/19 01:20:52;;;;;;;2.10;1.58;;;;;;;19.83;54.71;103024.53;5080375;28;20040;-39
2022/10/19 01:23:48;;;;;;;2.53;1.33;;;;;;;19.82;54.02;103022.81;5083803;28;20297;-39
2022/10/19 01:26:57;;;;;;;2.65;1.67;;;;;;;19.80;54.89;103030.13;5068246;28;20040;-39
2022/10/19 01:30:00;;;;;;;2.35;1.52;;;;;;;19.80;54.31;103029.28;5083431;28;20326;-39
2022/10/19 01:32:48;;;;;;;1.55;1.20;;;;;;;19.80;54.93;103021.22;5060975;28;20130;-39
2022/10/19 01:35:21;;;;;;;2.10;1.70;;;;;;;19.78;54.28;103029.41;5082474;28;20419;-39
2022/10/19 01:38:15;;;;;;;2.85;1.73;;;;;;;19.77;54.35;103030.34;5084203;28;20052;-39
2022/10/19 01:40:56;;;;;;;2.40;1.48;;;;;;;19.75;54.26;103021.53;5079774;28;20066;-39
2022/10/19 01:43:49;;;;;;;3.33;1.90;;;;;;;19.75;54.36;103028.75;5079742;28;20423;-39
2022/10/19 01:46:37;;;;;;;2.17;1.57;;;;;;;19.75;54.29;103026.94;5084847;28;20638;-39
2022/10/19 01:49:15;;;;;;;2.40;1.50;;;;;;;19.73;54.24;103026.16;5084740;28;20055;-39
2022/10/19 01:51:47;;;;;;;1.63;1.20;;;;;;;19.72;54.76;103011.84;5082766;28;20446;-39
2022/10/19 01:54:16;;;;;;;1.65;1.30;;;;;;;19.72;54.93;103032.53;5084312;28;20044;-39
2022/10/19 01:56:45;;;;;;;1.88;1.30;;;;;;;19.71;54.44;103026.28;5082632;28;20393;-39
2022/10/19 01:59:14;;;;;;;2.20;1.42;;;;;;;19.69;54.38;103028.22;5083100;28;20048;-39
2022/10/19 02:01:44;;;;;;;1.52;1.20;;;;;;;19.69;54.72;103025.53;5084214;28;20044;-39
2022/10/19 02:04:14;;;;;;;1.88;1.23;;;;;;;19.68;54.77;103015.75;5087760;28;20052;-39
2022/10/19 02:06:41;;;;;;;3.53;1.20;;;;;;;19.67;54.36;103022.09;5085268;28;20044;-39
2022/10/19 02:09:07;;;;;;;2.17;1.40;;;;;;;19.66;54.42;103011.47;5088439;28;20048;-39
2022/10/19 02:11:36;;;;;;;1.50;1.30;;;;;;;19.67;54.88;103013.19;5084709;28;20048;-39
2022/10/19 02:14:10;;;;;;;1.30;1.20;;;;;;;19.65;54.46;103009.72;5087374;28;20060;-39
2022/10/19 02:17:02;;;;;;;1.52;1.38;;;;;;;19.63;54.75;103017.91;5083766;28;20047;-39
2022/10/19 02:19:29;;;;;;;1.63;1.30;;;;;;;19.64;54.79;103011.56;5085933;28;20070;-39
2022/10/19 02:21:56;;;;;;;2.15;1.40;;;;;;;19.62;54.62;103008.13;5084019;28;20055;-39
2022/10/19 02:24:22;;;;;;;1.67;1.30;;;;;;;19.62;54.44;103016.19;5083938;28;20044;-39
2022/10/19 02:26:50;;;;;;;2.63;1.98;;;;;;;19.60;54.36;103007.34;5085579;28;20427;-39
2022/10/19 02:29:17;;;;;;;1.20;1.00;;;;;;;19.61;54.79;103013.56;5086233;28;20060;-39
2022/10/19 02:31:44;;;;;;;2.67;1.40;;;;;;;19.59;53.99;103008.31;5086119;28;20044;-39
2022/10/19 02:34:11;;;;;;;1.20;1.10;;;;;;;19.57;54.58;102996.78;5087440;28;20048;-39
2022/10/19 02:36:38;;;;;;;1.45;0.85;;;;;;;19.57;53.97;102995.94;5087002;28;20054;-39
2022/10/19 02:39:06;;;;;;;1.10;0.90;;;;;;;19.56;53.98;102995.06;5087852;28;20056;-39
2022/10/19 02:41:46;;;;;;;1.83;1.38;;;;;;;19.55;54.28;102995.19;5086841;28;20051;-39
2022/10/19 02:44:32;;;;;;;2.83;1.17;;;;;;;19.53;54.09;102986.38;5088481;28;20044;-38
2022/10/19 02:47:09;;;;;;;1.42;1.27;;;;;;;19.53;54.05;102989.91;5087668;28;20051;-39
2022/10/19 02:49:36;;;;;;;2.53;1.40;;;;;;;19.53;54.86;102991.75;5090074;28;20101;-39
2022/10/19 02:52:08;;;;;;;1.63;1.35;;;;;;;19.52;54.23;102990.03;5087167;28;20508;-39
2022/10/19 02:54:36;;;;;;;2.08;1.23;;;;;;;19.52;54.21;102982.81;5088095;28;20036;-38
2022/10/19 02:57:13;;;;;;;1.52;1.20;;;;;;;19.49;54.39;102986.59;5088275;28;20059;-38
2022/10/19 02:59:40;;;;;;;2.25;1.42;;;;;;;19.51;54.12;102985.63;5083314;28;20055;-39
2022/10/19 03:02:07;;;;;;;1.73;1.20;;;;;;;19.49;54.36;102981.19;5086542;28;20051;-39
2022/10/19 03:04:33;;;;;;;2.53;1.40;;;;;;;19.48;54.37;102986.69;5091909;28;20434;-39
2022/10/19 03:07:00;;;;;;;2.67;1.40;;;;;;;19.48;54.53;102987.56;5086946;28;20139;-39
2022/10/19 03:09:26;;;;;;;2.15;1.20;;;;;;;19.47;54.62;102991.22;5087151;28;20044;-39
2022/10/19 03:11:56;;;;;;;1.45;1.35;;;;;;;19.46;55.00;102992.22;5086851;28;20101;-38
2022/10/19 03:14:22;;;;;;;1.95;1.30;;;;;;;19.44;53.99;102993.28;5088076;28;20449;-38
2022/10/19 03:16:49;;;;;;;1.45;1.00;;;;;;;19.44;54.78;102991.44;5087138;28;20335;-38
2022/10/19 03:19:15;;;;;;;2.13;1.35;;;;;;;19.43;54.52;102987.03;5087901;28;20097;-38
2022/10/19 03:21:42;;;;;;;2.00;1.33;;;;;;;19.42;54.41;102982.63;5090511;28;20066;-38
2022/10/19 03:24:08;;;;;;;2.83;1.67;;;;;;;19.42;54.49;102979.09;5088045;28;20047;-38
2022/10/19 03:26:35;;;;;;;1.70;1.25;;;;;;;19.41;54.16;102974.66;5086613;28;20454;-38
2022/10/19 03:37:07;;;;;;;1.45;1.30;;;;;;;19.38;54.67;102966.84;5086241;28;20073;-39
2022/10/19 03:39:34;;;;;;;1.23;0.93;;;;;;;19.37;54.72;102962.41;5089700;28;20069;-38
2022/10/19 03:42:00;;;;;;;2.33;1.38;;;;;;;19.36;54.08;102966.94;5087049;28;20051;-38
2022/10/19 03:44:27;;;;;;;1.45;1.20;;;;;;;19.35;54.16;102964.38;5086670;28;20052;-38
2022/10/19 03:46:53;;;;;;;2.08;1.30;;;;;;;19.35;54.70;102962.53;5087210;28;20419;-38
2022/10/19 03:49:20;;;;;;;1.38;1.10;;;;;;;19.34;54.46;102968.03;5086749;28;20427;-38
2022/10/19 03:51:47;;;;;;;2.20;1.23;;;;;;;19.33;54.94;102964.47;5086290;28;20535;-38
2022/10/19 03:54:15;;;;;;;2.42;1.50;;;;;;;19.33;54.20;102968.97;5085820;28;20369;-38
2022/10/19 03:56:42;;;;;;;1.27;1.00;;;;;;;19.31;54.37;102963.72;5083674;28;20879;-38
2022/10/19 03:59:12;;;;;;;1.27;1.10;;;;;;;19.31;54.69;102958.34;5086143;28;20059;-39
2022/10/19 04:01:41;;;;;;;1.88;1.42;;;;;;;19.31;54.52;102969.09;5085094;28;20101;-39
2022/10/19 04:04:14;;;;;;;2.80;1.10;;;;;;;19.30;54.69;102966.53;5070682;28;20443;-39
2022/10/19 04:06:43;;;;;;;2.35;1.50;;;;;;;19.30;54.74;102979.97;5082189;28;20111;-39
2022/10/19 04:09:15;;;;;;;2.10;1.15;;;;;;;19.29;54.59;102964.78;5083991;28;20050;-39
2022/10/19 04:11:42;;;;;;;1.88;1.10;;;;;;;19.29;54.97;102979.09;5084106;28;20397;-38
2022/10/19 04:14:11;;;;;;;1.30;1.00;;;;;;;19.28;54.82;102977.38;5083751;28;20531;-39
2022/10/19 04:16:52;;;;;;;1.75;1.00;;;;;;;19.27;54.62;102975.66;5082989;28;21745;-39
2022/10/19 04:19:19;;;;;;;2.13;1.67;;;;;;;19.25;54.28;102972.22;5081149;28;20059;-38
2022/10/19 04:21:47;;;;;;;3.60;1.50;;;;;;;19.24;54.41;102970.50;5084650;28;20052;-39
2022/10/19 04:24:17;;;;;;;4.05;1.88;;;;;;;19.23;54.67;102974.16;5085522;28;20048;-39
2022/10/19 04:26:46;;;;;;;2.15;1.40;;;;;;;19.22;54.42;102976.00;5089535;28;20047;-39
2022/10/19 04:29:13;;;;;;;1.17;1.00;;;;;;;19.22;54.59;102970.63;5084573;28;20105;-38
2022/10/19 04:31:40;;;;;;;1.63;1.15;;;;;;;19.21;54.45;102970.72;5080708;28;20167;-38
2022/10/19 04:34:07;;;;;;;2.90;1.10;;;;;;;19.21;54.20;102976.94;5085447;28;20135;-38
2022/10/19 04:36:34;;;;;;;1.20;0.90;;;;;;;19.20;54.45;102977.06;5083288;28;20394;-39
2022/10/19 04:39:01;;;;;;;1.98;1.13;;;;;;;19.19;54.48;102969.97;5083132;28;20105;-38
2022/10/19 04:41:27;;;;;;;3.75;1.23;;;;;;;19.19;54.55;102956.53;5080949;28;20439;-38
2022/10/19 04:43:59;;;;;;;2.15;1.20;;;;;;;19.19;54.57;102961.91;5076412;28;20431;-38
2022/10/19 04:46:26;;;;;;;1.58;1.05;;;;;;;19.17;54.38;102970.06;5085412;28;20044;-38
2022/10/19 04:48:54;;;;;;;1.00;0.90;;;;;;;19.16;54.10;102965.66;5081044;28;20040;-38
2022/10/19 04:51:22;;;;;;;2.72;1.15;;;;;;;19.15;53.95;102966.66;5078972;28;20044;-39
2022/10/19 04:53:48;;;;;;;2.78;1.38;;;;;;;19.15;54.34;102960.41;5080372;28;20048;-38
2022/10/19 04:56:20;;;;;;;1.42;1.00;;;;;;;19.15;54.54;102963.97;5086089;28;20079;-38
2022/10/19 04:58:47;;;;;;;1.20;1.05;;;;;;;19.14;54.42;102956.88;5081171;28;20048;-38
2022/10/19 05:01:17;;;;;;;1.48;1.10;;;;;;;19.14;54.56;102950.66;5088649;28;20048;-38
2022/10/19 05:03:44;;;;;;;1.67;1.00;;;;;;;19.12;54.19;102960.63;5085781;28;20464;-38
2022/10/19 05:06:12;;;;;;;2.08;1.48;;;;;;;19.11;54.42;102958.91;5083590;28;20097;-38
2022/10/19 05:08:39;;;;;;;1.85;1.00;;;;;;;19.10;54.46;102960.75;5085765;28;20048;-39
2022/10/19 05:11:12;;;;;;;2.72;1.00;;;;;;;19.10;54.24;102966.13;5083651;28;20044;-39
2022/10/19 05:13:38;;;;;;;1.42;1.00;;;;;;;19.09;54.70;102959.00;5081433;28;20048;-39
2022/10/19 05:16:06;;;;;;;1.67;1.27;;;;;;;19.08;54.00;102959.97;5083821;28;20382;-39
2022/10/19 05:18:33;;;;;;;2.58;1.30;;;;;;;19.08;54.33;102951.91;5080201;28;20048;-39
2022/10/19 05:21:01;;;;;;;1.08;0.90;;;;;;;19.07;54.39;102950.22;5083265;28;20085;-39
2022/10/19 05:23:28;;;;;;;1.30;1.00;;;;;;;19.07;54.54;102955.59;5082142;28;20059;-39
2022/10/19 05:26:04;;;;;;;1.63;1.10;;;;;;;19.06;54.00;102955.72;5079485;28;20044;-39
2022/10/19 05:28:31;;;;;;;2.20;1.40;;;;;;;19.06;54.24;102950.34;5081544;28;20064;-39
2022/10/19 05:31:11;;;;;;;1.30;1.13;;;;;;;19.04;54.32;102947.72;5081179;28;20053;-39
2022/10/19 05:33:38;;;;;;;1.45;1.08;;;;;;;19.04;54.16;102939.66;5084742;28;20056;-39
2022/10/19 05:36:12;;;;;;;2.08;1.20;;;;;;;19.03;54.07;102946.03;5081966;28;20059;-39
2022/10/19 05:38:39;;;;;;;2.35;1.42;;;;;;;19.03;54.16;102943.34;5084603;28;20759;-39
2022/10/19 05:41:06;;;;;;;1.48;1.10;;;;;;;19.02;53.97;102951.50;5081363;28;20173;-39
2022/10/19 05:43:32;;;;;;;1.77;1.17;;;;;;;19.01;54.25;102947.94;5083587;28;20438;-39
2022/10/19 05:46:07;;;;;;;1.20;0.90;;;;;;;19.01;54.54;102941.72;5083149;28;20124;-39
2022/10/19 05:48:34;;;;;;;2.13;1.25;;;;;;;18.99;54.26;102934.63;5078717;28;20037;-39
2022/10/19 05:51:04;;;;;;;2.25;1.48;;;;;;;18.98;54.15;102940.13;5082178;28;20060;-39
2022/10/19 05:53:31;;;;;;;1.70;1.10;;;;;;;18.98;54.01;102934.75;5084484;28;20048;-39
2022/10/19 05:55:58;;;;;;;1.50;1.05;;;;;;;18.98;54.66;102940.97;5079292;28;20460;-39
2022/10/19 05:58:24;;;;;;;5.88;1.38;;;;;;;18.97;53.94;102938.38;5082894;28;20101;-39
2022/10/19 06:00:55;;;;;;;1.55;1.10;;;;;;;18.97;54.52;102947.31;5084482;28;20052;-39
2022/10/19 06:03:23;;;;;;;1.55;1.08;;;;;;;18.96;54.20;102942.91;5083005;28;20052;-39
2022/10/19 06:05:50;;;;;;;1.13;1.02;;;;;;;18.95;54.09;102934.97;5082343;28;20048;-39
2022/10/19 06:08:18;;;;;;;3.25;1.55;;;;;;;18.94;54.22;102936.78;5086474;28;20040;-39
2022/10/19 06:10:45;;;;;;;1.20;1.10;;;;;;;18.94;54.44;102938.63;5086721;28;20048;-39
2022/10/19 06:13:12;;;;;;;2.33;1.33;;;;;;;18.94;54.73;102935.94;5084710;28;20055;-39
2022/10/19 06:15:39;;;;;;;2.28;1.35;;;;;;;18.93;54.34;102948.47;5088848;28;20102;-39
2022/10/19 06:18:07;;;;;;;2.38;1.13;;;;;;;18.94;54.57;102954.75;5080259;28;20413;-39
2022/10/19 06:20:38;;;;;;;6.07;1.77;;;;;;;18.93;54.24;102944.94;5090452;28;20044;-39
2022/10/19 06:23:05;;;;;;;3.95;1.27;;;;;;;18.91;53.99;102939.69;5091097;28;20056;-39
2022/10/19 06:25:32;;;;;;;2.53;1.38;;;;;;;18.91;54.27;102933.44;5080554;28;20049;-39
2022/10/19 06:27:59;;;;;;;2.17;1.30;;;;;;;18.90;54.67;102940.66;5083479;28;20037;-39
2022/10/19 06:30:26;;;;;;;6.47;1.40;;;;;;;18.91;nan;102941.50;5082161;28;20056;-39
2022/10/19 06:32:52;;;;;;;2.00;1.10;;;;;;;18.90;54.23;102942.50;5083499;28;20055;-39
2022/10/19 06:35:19;;;;;;;2.30;1.20;;;;;;;18.89;54.46;102941.59;5082329;28;20055;-39
2022/10/19 06:37:46;;;;;;;1.85;1.00;;;;;;;18.88;54.95;102942.56;5081749;28;20048;-39
2022/10/19 06:40:12;;;;;;;1.38;0.90;;;;;;;18.89;54.68;102943.44;5079518;28;20106;-39
2022/10/19 06:42:39;;;;;;;3.10;1.63;;;;;;;18.87;54.17;102938.19;5086933;28;20058;-39
2022/10/19 06:45:09;;;;;;;3.33;1.40;;;;;;;18.89;54.56;102938.06;5087542;28;20056;-39
2022/10/19 06:47:36;;;;;;;1.65;1.20;;;;;;;18.91;54.19;102945.06;5081978;28;20052;-39
2022/10/19 06:50:05;;;;;;;3.17;1.13;;;;;;;18.96;54.17;102945.59;5084642;28;20083;-39
2022/10/19 06:52:32;;;;;;;2.55;1.17;;;;;;;19.02;54.49;102936.25;5086365;28;20060;-39
2022/10/19 06:55:00;;;;;;;4.60;1.45;;;;;;;19.09;54.09;102937.50;5084473;28;20365;-39
2022/10/19 06:57:27;;;;;;;2.08;1.55;;;;;;;19.18;53.74;102926.13;5086564;28;20316;-39
2022/10/19 06:59:54;;;;;;;3.53;1.45;;;;;;;19.28;54.10;102941.56;5086793;28;20127;-39
2022/10/19 07:02:20;;;;;;;1.90;1.23;;;;;;;19.36;53.70;102936.50;5086862;28;20066;-39
2022/10/19 07:04:47;;;;;;;2.67;1.20;;;;;;;19.44;53.96;102939.50;5084821;28;20044;-39
2022/10/19 07:07:13;;;;;;;2.22;1.30;;;;;;;19.53;53.48;102948.72;5082801;28;20056;-39
2022/10/19 07:09:40;;;;;;;2.78;1.30;;;;;;;19.61;53.53;102941.81;5083324;28;20053;-39
2022/10/19 07:12:09;;;;;;;1.90;1.20;;;;;;;19.70;53.22;102943.84;5081820;28;20048;-39
2022/10/19 07:14:38;;;;;;;1.60;0.90;;;;;;;19.79;53.54;102930.69;5081880;28;20046;-39
2022/10/19 07:17:06;;;;;;;2.47;1.23;;;;;;;19.85;52.99;102933.75;5082729;28;20240;-39
2022/10/19 07:19:32;;;;;;;2.58;1.40;;;;;;;19.93;53.32;102934.03;5080889;28;20048;-39
2022/10/19 07:21:59;;;;;;;1.88;1.10;;;;;;;20.00;52.59;102934.47;5082909;28;20048;-39
2022/10/19 07:24:26;;;;;;;1.67;1.10;;;;;;;20.04;52.57;102933.25;5082834;28;20048;-39
2022/10/19 07:26:52;;;;;;;2.65;1.25;;;;;;;20.09;52.71;102939.13;5085641;28;20113;-39
2022/10/19 07:29:19;;;;;;;1.60;1.17;;;;;;;20.11;53.01;102926.44;5082392;28;20556;-39
2022/10/19 07:31:45;;;;;;;3.92;1.30;;;;;;;20.11;52.81;102926.44;5087774;28;20048;-39
2022/10/19 07:34:13;;;;;;;1.98;1.15;;;;;;;20.11;52.43;102934.50;5084447;28;20374;-39
2022/10/19 07:36:44;;;;;;;2.40;1.15;;;;;;;20.09;52.50;102938.28;5083069;28;20077;-39
2022/10/19 07:39:11;;;;;;;2.42;1.00;;;;;;;20.06;53.03;102923.25;5084942;28;20059;-39
2022/10/19 07:41:38;;;;;;;2.40;1.20;;;;;;;20.03;52.71;102919.91;5082532;28;20044;-39
2022/10/19 07:44:05;;;;;;;2.47;1.40;;;;;;;19.99;52.48;102926.50;5082968;28;20047;-39
2022/10/19 07:46:37;;;;;;;2.22;1.10;;;;;;;19.94;52.82;102927.72;5087712;28;20056;-39
2022/10/19 07:49:08;;;;;;;3.42;1.40;;;;;;;19.91;53.33;102930.63;5083491;28;20059;-39
2022/10/19 07:51:36;;;;;;;2.83;1.70;;;;;;;19.87;52.90;102941.75;5085424;28;20400;-39
2022/10/19 07:54:03;;;;;;;1.13;0.98;;;;;;;19.84;53.17;102950.88;5083318;28;20123;-39
2022/10/19 07:56:30;;;;;;;1.92;1.25;;;;;;;19.81;53.26;102947.56;5081519;28;20048;-39
2022/10/19 07:58:58;;;;;;;3.72;1.33;;;;;;;19.79;52.72;102954.91;5080133;28;20124;-39
2022/10/19 08:01:28;;;;;;;2.53;1.10;;;;;;;19.76;53.02;102950.59;5086481;28;20051;-39
2022/10/19 08:03:56;;;;;;;1.60;1.17;;;;;;;19.73;53.36;102949.00;5084038;28;20052;-39
2022/10/19 08:06:43;;;;;;;2.70;1.20;;;;;;;19.72;52.98;102943.72;5079726;28;20047;-39
2022/10/19 08:09:09;;;;;;;1.75;1.10;;;;;;;19.70;53.35;102954.63;5082892;28;20048;-39
2022/10/19 08:11:48;;;;;;;1.42;0.95;;;;;;;19.67;53.47;102949.47;5082505;28;20430;-39
2022/10/19 08:14:15;;;;;;;1.52;1.00;;;;;;;19.65;53.75;102948.69;5081493;28;20547;-39
2022/10/19 08:16:43;;;;;;;1.35;1.13;;;;;;;19.64;53.82;102954.19;5087147;28;20060;-39
2022/10/19 08:19:12;;;;;;;2.10;1.20;;;;;;;19.61;53.48;102952.59;5081481;28;20139;-39
2022/10/19 08:21:42;;;;;;;1.60;1.00;;;;;;;19.60;53.53;102950.84;5080758;28;20048;-39
2022/10/19 08:24:10;;;;;;;3.10;1.45;;;;;;;19.59;53.62;102945.59;5082051;28;20527;-39
2022/10/19 08:26:38;;;;;;;2.53;1.20;;;;;;;19.59;53.78;102945.59;5081206;28;20044;-39
2022/10/19 08:29:08;;;;;;;2.28;1.10;;;;;;;19.56;53.72;102930.53;5079816;28;20045;-39
2022/10/19 08:31:35;;;;;;;1.67;1.00;;;;;;;19.55;53.46;102931.50;5082995;28;20048;-39
2022/10/19 08:34:02;;;;;;;2.05;1.00;;;;;;;19.54;53.79;102923.53;5088121;28;20053;-39
2022/10/19 08:36:31;;;;;;;2.70;1.23;;;;;;;19.54;54.02;102924.41;5081865;28;20350;-39
2022/10/19 08:38:57;;;;;;;1.85;1.15;;;;;;;19.53;53.62;102928.03;5084350;28;20431;-39
2022/10/19 08:41:34;;;;;;;1.77;1.00;;;;;;;19.53;53.99;102924.50;5078595;28;20048;-39
2022/10/19 08:44:32;;;;;;;2.60;1.15;;;;;;;19.53;54.34;102921.81;5084607;28;20080;-39
2022/10/19 08:47:26;;;;;;;3.38;1.10;;;;;;;19.52;54.29;102914.72;5082778;28;20085;-39
2022/10/19 08:49:54;;;;;;;1.73;1.13;;;;;;;19.55;53.95;102912.66;5080692;28;20071;-39
2022/10/19 08:52:26;;;;;;;1.52;0.98;;;;;;;19.55;53.53;102899.22;5082473;28;20068;-39
2022/10/19 08:55:10;;;;;;;2.15;0.98;;;;;;;19.57;54.21;102901.78;5078693;28;20887;-39
2022/10/19 08:58:22;;;;;;;1.50;1.13;;;;;;;19.56;54.39;102892.84;5083430;28;20041;-39
2022/10/19 09:00:53;;;;;;;1.35;1.10;;;;;;;19.60;54.26;102893.50;5064263;28;20374;-39
2022/10/19 09:03:47;;;;;;;1.42;1.20;;;;;;;19.59;54.58;102895.34;5081096;28;20048;-39
2022/10/19 09:06:40;;;;;;;1.20;0.90;;;;;;;19.63;54.13;102896.84;5082845;28;20052;-39
2022/10/19 09:09:12;;;;;;;1.35;0.90;;;;;;;19.66;54.78;102887.72;5080513;28;20339;-39
2022/10/19 09:11:46;;;;;;;2.72;1.08;;;;;;;19.68;54.26;102891.97;5081996;28;20044;-39
2022/10/19 09:14:31;;;;;;;1.52;1.00;;;;;;;19.73;54.45;102894.31;5082951;28;20052;-39
2022/10/19 09:17:08;;;;;;;2.92;1.08;;;;;;;19.77;54.93;102892.25;5084401;28;20048;-39
2022/10/19 09:19:35;;;;;;;2.55;1.15;;;;;;;19.80;54.27;102876.75;5080567;28;20040;-39
2022/10/19 09:22:07;;;;;;;1.77;1.00;;;;;;;19.84;54.88;102863.91;5087401;28;20059;-39
2022/10/19 09:24:47;;;;;;;1.80;1.10;;;;;;;19.87;54.47;102853.78;5081815;28;20052;-39
2022/10/19 09:27:34;;;;;;;2.45;1.05;;;;;;;19.93;54.82;102865.91;5085245;28;20048;-39
2022/10/19 09:30:04;;;;;;;1.65;1.20;;;;;;;20.01;55.12;102873.41;5081855;28;20040;-39
2022/10/19 09:32:38;;;;;;;2.10;0.95;;;;;;;20.05;54.61;102875.72;5083522;28;20056;-39
2022/10/19 09:35:16;;;;;;;1.90;1.00;;;;;;;20.10;54.95;102873.56;5086790;28;20068;-39
2022/10/19 09:37:47;;;;;;;1.83;1.00;;;;;;;20.15;54.62;102866.00;5085647;28;20056;-39
2022/10/19 09:40:17;;;;;;;1.77;1.02;;;;;;;20.18;54.81;102860.38;5086634;28;20063;-39
2022/10/19 09:42:44;;;;;;;2.25;1.00;;;;;;;20.22;54.10;102860.97;5086848;28;20058;-39
2022/10/19 09:45:18;;;;;;;1.30;0.90;;;;;;;20.27;54.46;102866.03;5085180;28;20121;-39
2022/10/19 09:47:47;;;;;;;4.13;1.27;;;;;;;20.29;54.55;102864.91;5085226;28;20044;-39
2022/10/19 09:50:19;;;;;;;1.95;1.00;;;;;;;20.33;54.11;102858.31;5087891;28;20051;-39
2022/10/19 09:52:48;;;;;;;3.20;1.07;;;;;;;20.36;54.08;102859.91;5084956;28;20367;-39
2022/10/19 09:55:27;;;;;;;3.58;1.30;;;;;;;20.38;53.96;102864.22;5083046;28;20067;-40
2022/10/19 09:58:03;;;;;;;3.60;1.10;;;;;;;20.41;53.78;102869.34;5090440;28;20067;-40
2022/10/19 10:00:41;;;;;;;1.77;0.90;;;;;;;20.44;54.05;102869.09;5086444;28;20676;-40
2022/10/19 10:03:34;;;;;;;2.70;0.88;;;;;;;20.46;54.05;102872.56;5089079;28;20131;-40
2022/10/19 10:06:05;;;;;;;2.00;1.00;;;;;;;20.51;54.13;102865.97;5084547;28;20316;-40
2022/10/19 10:08:35;;;;;;;1.63;0.80;;;;;;;20.53;53.50;102872.94;5082659;28;20044;-40
2022/10/19 10:11:14;;;;;;;1.45;0.80;;;;;;;20.55;53.45;102871.00;5084881;28;20053;-40
2022/10/19 10:13:46;;;;;;;1.95;0.85;;;;;;;20.58;53.39;102867.19;5085487;28;20055;-40
2022/10/19 10:16:16;;;;;;;1.23;1.00;;;;;;;20.60;53.66;102867.94;5085381;28;20052;-40
2022/10/19 10:19:01;;;;;;;1.63;1.08;;;;;;;20.60;53.97;102855.31;5087834;28;20052;-40
2022/10/19 10:21:34;;;;;;;1.50;1.10;;;;;;;20.62;53.58;102850.69;5084103;28;20056;-40
2022/10/19 10:24:15;;;;;;;1.48;0.80;;;;;;;20.63;53.66;102838.91;5084582;28;20048;-40
2022/10/19 10:26:45;;;;;;;4.30;1.10;;;;;;;20.66;53.39;102840.47;5084019;28;20063;-40
2022/10/19 10:29:33;;;;;;;1.73;0.98;;;;;;;20.67;52.98;102843.06;5085952;28;20044;-40
2022/10/19 10:32:03;;;;;;;2.20;0.88;;;;;;;20.68;53.55;102834.00;5080036;28;20075;-40
2022/10/19 10:34:42;;;;;;;2.85;1.05;;;;;;;20.69;53.16;102829.47;5085453;28;20055;-40
2022/10/19 10:37:27;;;;;;;1.40;0.80;;;;;;;20.73;52.92;102824.69;5085134;28;20065;-40
2022/10/19 10:39:56;;;;;;;1.45;1.00;;;;;;;20.73;53.27;102820.16;5086585;28;20090;-40
2022/10/19 10:42:31;;;;;;;2.70;1.10;;;;;;;20.73;53.25;102817.47;5087664;28;20077;-39
2022/10/19 10:44:58;;;;;;;2.15;0.98;;;;;;;20.74;53.46;102819.16;5082319;28;20052;-40
2022/10/19 10:47:27;;;;;;;2.72;0.80;;;;;;;20.75;52.74;102820.91;5086738;28;20055;-40
2022/10/19 10:50:04;;;;;;;2.30;0.90;;;;;;;20.76;53.38;102810.97;5081832;28;20384;-40
2022/10/19 10:52:32;;;;;;;1.50;1.00;;;;;;;20.76;53.00;102814.53;5086148;28;20533;-40
2022/10/19 10:55:15;;;;;;;3.83;1.00;;;;;;;20.77;53.05;102808.16;5082570;28;20154;-40
2022/10/19 10:57:48;;;;;;;1.55;1.00;;;;;;;20.78;52.88;102811.69;5083919;28;20056;-40
2022/10/19 11:00:22;;;;;;;3.13;1.10;;;;;;;20.79;53.04;102799.97;5084092;28;20048;-39
2022/10/19 11:03:15;;;;;;;2.75;0.90;;;;;;;20.79;52.69;102798.13;5086462;28;20430;-40
2022/10/19 11:05:50;;;;;;;3.63;1.60;;;;;;;20.81;52.69;102781.81;5083080;28;20318;-40
2022/10/19 11:08:23;;;;;;;3.65;1.25;;;;;;;20.82;52.88;102784.38;5083855;28;20328;-40
2022/10/19 11:10:59;;;;;;;7.07;1.45;;;;;;;20.82;53.06;102778.13;5086020;28;20051;-39
2022/10/19 11:13:41;;;;;;;5.35;1.50;;;;;;;20.83;52.98;102772.63;5083867;28;20089;-40
2022/10/19 11:16:44;;;;;;;3.28;1.38;;;;;;;20.83;53.28;102763.69;5089360;28;20434;-40
2022/10/19 11:19:21;;;;;;;4.28;1.88;;;;;;;20.85;53.02;102749.09;5065166;28;20040;-40
2022/10/19 11:22:14;;;;;;;2.58;1.20;;;;;;;20.85;52.38;102748.22;5083495;28;20150;-40
2022/10/19 11:25:14;;;;;;;3.17;1.30;;;;;;;20.86;52.88;102736.47;5084700;28;20389;-39
2022/10/19 11:27:50;;;;;;;7.22;2.40;;;;;;;20.87;52.42;102736.34;5083657;28;20044;-40
2022/10/19 11:30:23;;;;;;;3.58;2.00;;;;;;;20.90;52.76;102729.84;5085772;28;20052;-40
2022/10/19 11:33:10;;;;;;;6.10;1.58;;;;;;;20.90;52.57;102737.91;5083088;28;20454;-40
2022/10/19 11:35:52;;;;;;;5.00;1.60;;;;;;;20.90;52.99;102729.84;5084006;28;20040;-40
2022/10/19 11:38:22;;;;;;;3.47;1.35;;;;;;;20.91;52.86;102727.03;5083616;28;20043;-40
2022/10/19 11:41:20;;;;;;;5.63;1.35;;;;;;;20.91;53.01;102729.72;5082084;28;20054;-40
2022/10/19 11:43:55;;;;;;;2.47;1.55;;;;;;;20.94;52.83;102720.50;5081874;28;20070;-40
2022/10/19 11:46:21;;;;;;;5.63;2.08;;;;;;;20.94;53.02;102704.34;5086060;28;20044;-40
2022/10/19 11:49:10;;;;;;;6.60;1.80;;;;;;;20.95;53.17;102698.84;5083789;28;20059;-40
2022/10/19 11:51:48;;;;;;;5.10;1.60;;;;;;;20.98;52.69;102688.75;5085067;28;20052;-40
2022/10/19 11:54:51;;;;;;;4.50;1.45;;;;;;;20.97;52.48;102690.59;5082553;28;20056;-40